普天間飛行場の過去48時間の天気

普天間飛行場 (Futema)

現在時刻: 4/25 23:44 JST (4/25 14:44 UTC) 以下の時間は現地時間です。

過去48時間のMETAR気象情報
時間 風向 風速(m/s) 視程 気温(℃) 湿度(%) 気圧(hPa) 天気現象
25 22:56 北西 4 10km以上 19.4 76 1012
25 21:56 北西 4 10km以上 19.4 76 1012.3
25 20:56 北西 4 10km以上 19.4 79 1011.7
25 19:56 北西 4 10km以上 19.4 79 1011.1
25 18:56 北北西 6 10km以上 19.4 81 1010.7
25 17:56 北西 5 10km以上 19.4 84 1010.4
25 16:56 北北西 6 10km以上 19.4 87 1010.1
25 15:56 北西 4 10km以上 20.6 81 1009.9
25 14:56 北北西 5 10km以上 21.7 76 1009.8
25 12:56 北西 5 10km以上 21.7 76 1010.8
25 11:56 北北西 5 10km以上 21.1 78 1011.2
25 09:56 北北西 6 10km以上 21.7 79 1011.5
25 08:56 北西 5 10km以上 20 90 1011.5
25 08:30 北西 6 10km以上 20 88 1011.2
25 07:56 北西 5 8,000m 20 93 1010.6 弱い霧雨 もや
25 07:30 北西 6 8,000m 20 88 1010.4 弱い霧雨 もや
25 06:56 北西 5 10km以上 20 90 1009.8
25 05:56 北北西 4 10km以上 20 93 1009.1
25 04:56 北北西 5 10km以上 20 93 1008.8
25 04:00 北西 5 10km以上 20 94 1000.6
24 21:56 北北西 4 6,000m 21.1 81 1009.6 しゅう雨 もや
24 21:24 北北西 5 6,000m 21 100 1009.4 しゅう雨 もや
24 20:56 北西 4 6,000m 21.7 98 1008.8 雷雨 もや 雷 細氷
24 20:23 西北西 5 2,400m 22 94 1009.5 強い雷雨 もや
24 19:56 南西 6 6,000m 24.4 94 1008 しゅう雨 もや
24 19:19 南西 7 9,000m 24 94 1008 弱いしゅう雨 もや
24 18:56 南南西 7 10km以上 25 90 1007.7
24 18:27 南南西 7 10km以上 25 89 1007.4
24 17:56 南南西 7 10km以上 25 88 1007.2
24 16:56 南南西 7 10km以上 25.6 85 1006.9
24 15:56 南南西 7 10km以上 26.7 79 1006.7
24 07:56 南南東 5 9,000m 23.3 97 1010.1 もや
24 06:56 南南東 5 10km以上 23.3 94 1010.3
24 05:56 5 10km以上 23.3 94 1010.1
24 04:56 6 10km以上 23.3 94 1010
24 04:00 南南東 5 10km以上 23 94 1009.7
ROTM 251356Z 32008KT 9999 SCT020 BKN030 19/15 A2993 RMK SLP120 STNPR29630 T01940150
ROTM 251256Z 31007KT 9999 SCT015 BKN030 19/15 A2993 RMK SLP123 STNPR29640 T01940150
ROTM 251156Z 32008KT 9999 BKN015 BKN030 19/16 A2991 RMK SLP117 STNPR29620 P0080 T01940156 10222 20194 52010
ROTM 251056Z 31007KT 9999 BKN015 OVC030 19/16 A2990 RMK SLP111 STNPR29605 T01940156
ROTM 250956Z 33011KT 9999 BKN015 OVC030 19/16 A2989 RMK SLP107 STNPR29590 T01940161
ROTM 250856Z 32009KT 9999 BKN015 OVC030 19/17 A2988 RMK SLP104 STNPR29580 T01940167 52005
ROTM 250756Z 33012KT 9999 SCT015 BKN020 OVC025 19/17 A2987 RMK SLP101 STNPR29570 T01940172
ROTM 250656Z 32008KT 9999 SCT015 BKN020 OVC030 21/17 A2986 RMK SLP099 STNPR29565 T02060172
ROTM 250556Z 33010KT 9999 BKN015 BKN020 OVC030 22/17 A2986 RMK SLP098 STNPR29565 T02170172 10217 20211 56008
ROTM 250356Z 31010KT 9999 FEW015 SCT020 OVC030 22/17 A2988 RMK SLP108 STNPR29590 T02170172
ROTM 250256Z 33009KT 9999 SCT015 BKN030 21/17 A2990 RMK SLP112 STNPR29605 T02110172 58003
ROTM 250056Z 33011KT 9999 SCT015 BKN030 22/18 A2991 RMK SLP115 STNPR29615 T02170178
ROTM 242356Z 32010KT 9999 FEW008 BKN015 OVC020 20/18 A2991 RMK DZE30 SLP115 STNPR29615 P0000 60000 T02000183 1//// 2//// 51019
ROTM 242330Z 31011G17KT 9999 FEW008 BKN015 OVC020 20/18 A2990 RMK SLP112 STNPR29605
ROTM 242256Z 31010KT 8000 -DZ BR FEW008 BKN015 OVC030 20/19 A2989 RMK DZB30 SLP106 STNPR29590 P0000 T02000189
ROTM 242230Z 32012KT 8000 -DZ BR FEW008 BKN015 OVC030 20/18 A2988 RMK SLP104 STNPR29585
ROTM 242156Z 32009KT 9999 SCT013 BKN023 OVC028 20/18 A2986 RMK SLP098 STNPR29560 T02000183
ROTM 242056Z 33007KT 9999 SCT010 OVC020 20/19 A2984 RMK SLP091 STNPR29550 T02000189 5////
ROTM 241956Z 33009KT 9999 SCT010 BKN020 20/19 A2983 RMK SLP088 STNPR29535 T02000189
ROTM 241900Z 32009KT 9999 SCT015 BKN020 20/19 A2983 RMK SLP006 STNPR29535 FIRST
ROTM 241256Z 33007KT 6000 SHRA BR SCT005 OVC010 21/17 A2986 RMK TSE24 SLP096 STNPR29560 T1 T02110178
ROTM 241224Z 33009KT 6000 SHRA BR SCT005 OVC010 21/21 A2983 RMK TSRAE24 SLP094 STNPR29550 T1
ROTM 241156Z 31007KT 6000 TSRA BR SCT005 OVC010CB 22/21 A2983 OCNL LTGICCCCG OVD MOV NE TSB23 CB OVD MOV NE SLP 088 STNPR29540 T1 P0088 60100 70100 T02170213 10267 20217 50015
ROTM 241123Z 30010KT 2400 +TSRA BR FEW008 BKN010CB OVC035 22/21 A2985 RMK OCNL LTGICCCCG OVD MOV NE CB OVD MOV NE SLP095 STNPR29550 T1 SET
ROTM 241056Z 23012G21KT 6000 SHRA BR BKN010 OVC020 24/23 A2981 RMK OCNL LTG DSNT NW MOV NE CB NW MOV NE SLP080 STNPR29520 T2 P0012 T02440233
ROTM 241019Z 22013G21KT 9000 -SHRA BR BKN010 BKN030 OVC045 24/23 A2981 RMK OCNL LTG DSNT NW MOV NE -SHRAB19 CB DSNT NW MOV NE SLP080 STNPR29510 WND WRNG T2 XWND
ROTM 240956Z 21014G25KT 9999 SCT015 BKN023 OVC065 25/23 A2980 RMK -SHRAB27E30 SLP077 STNPR29510 WND WRNG T2 XWND P0000 T02500233
ROTM 240927Z 20014KT 9999 SCT015 BKN025 OVC070 25/23 A2980 RMK -SHRAB27E30 SLP074 STNPR29495 WND WRNG T2 XWND
ROTM 240856Z COR 21014G20KT 9999 SCT015 BKN025 OVC070 25/23 A2979 RMK SLP072 STNPR29495 WND WRNG T2 XWND T02500228 51007
ROTM 240756Z 21014G20KT 9999 SCT015 BKN020 OVC070 26/23 A2978 RMK SLP069 STNPR29485 WND WRNG T2 XWND T02560228
ROTM 240656Z 20013G21KT 9999 BKN015 BKN020 OVC070 27/23 A2977 RMK SLP067 STNPR29475 WND WRNG T2 XWND T02670228
ROTM 232256Z 16010KT 9000 BR FEW008 BKN010 BKN040 23/23 A2987 RMK SLP101 STNPR29575 T02330228
ROTM 232156Z 16009G17KT 9999 BKN010 BKN020 23/22 A2988 RMK SLP103 STNPR29585 T02330222
ROTM 232056Z 18009KT 9999 BKN010 OVC020 23/22 A2987 RMK SLP101 STNPR29580 T02330222 5////
ROTM 231956Z 17011KT 9999 SCT009 BKN016 23/22 A2987 RMK SLP100 STNPR29570 T02330222
ROTM 231900Z 16010KT 9999 SCT009 BKN015 23/22 A2986 RMK SLP097 STNPR29560 FIRST